Aroya, Colorado
Current Conditions -  °F | °C
As of 1:55 AM on Saturday 20 Dec 2014 (Local Time) from KLIC Reporting Station
Clear Clear  
Wind Chill:   Ceiling: Unl
Heat Index: 16°   Visibility: 10mi
Dew Point: 14°   Wind: 6mph
Humidity: 92%   Direction: 350°N
Pressure: 30.03"   Gusts: NA
Location:  38.8543°N, 103.125°W
Report Text: KLIC 200855Z AUTO 35005KT 10SM CLR M09/M10 A3003 RMK AO2 SLP183 T10891100 55003
Loading
Personal Weather Stations






























Interactive Weather Map New forecast layout! Learn more

10-Day Weather Forecast

Advertisements
Track Severe Weather on mobile